Time;durP1;ratioP1;P1;durP2;ratioP2;P2;SDS_P1;SDS_P2;PMS_P1;PMS_P2;Temp;Humidity;BMP_temperature;BMP_pressure;BME280_temperature;BME280_humidity;BME280_pressure;Samples;Min_cycle;Max_cycle;Signal;HPM_P1;HPM_P2
2021/01/03 00:02:16;;;;;;;47.15;21.65;;;-0.10;99.90;;;;;;4772303;29;20055;-78
2021/01/03 00:04:43;;;;;;;47.22;19.85;;;0.00;99.90;;;;;;4772341;29;20055;-78
2021/01/03 00:07:10;;;;;;;49.95;20.88;;;-0.10;99.90;;;;;;4772426;29;20197;-78
2021/01/03 00:09:42;;;;;;;42.55;19.73;;;-0.10;99.90;;;;;;4773000;29;20048;-78
2021/01/03 00:12:14;;;;;;;44.72;21.27;;;-0.10;99.90;;;;;;4773270;29;20504;-78
2021/01/03 00:14:46;;;;;;;53.88;21.90;;;0.00;99.90;;;;;;4773346;29;20059;-78
2021/01/03 00:17:18;;;;;;;48.25;20.67;;;0.00;99.90;;;;;;4787658;29;20496;-78
2021/01/03 00:19:44;;;;;;;50.25;21.88;;;0.00;99.90;;;;;;4772760;29;20055;-78
2021/01/03 00:22:16;;;;;;;49.53;20.75;;;-0.10;99.90;;;;;;4773152;29;20061;-78
2021/01/03 00:24:43;;;;;;;45.03;20.80;;;-0.10;99.90;;;;;;4772414;30;20062;-78
2021/01/03 00:27:10;;;;;;;54.75;22.52;;;0.00;99.90;;;;;;4772549;29;20157;-78
2021/01/03 00:29:47;;;;;;;45.83;20.70;;;-0.10;99.90;;;;;;4773097;29;20401;-78
2021/01/03 00:32:14;;;;;;;49.08;20.85;;;0.00;99.90;;;;;;4772582;30;20424;-78
2021/01/03 00:34:40;;;;;;;41.25;21.10;;;-0.10;99.90;;;;;;4772408;29;20055;-78
2021/01/03 00:37:07;;;;;;;47.17;20.98;;;-0.10;99.90;;;;;;4772834;30;20146;-78
2021/01/03 00:39:39;;;;;;;46.58;21.10;;;-0.10;99.90;;;;;;4773420;29;20055;-78
2021/01/03 00:42:11;;;;;;;49.53;21.25;;;-0.10;99.90;;;;;;4773239;29;20619;-78
2021/01/03 00:44:38;;;;;;;46.38;20.15;;;-0.10;99.90;;;;;;4772722;30;20055;-78
2021/01/03 00:47:10;;;;;;;48.45;20.35;;;-0.10;99.90;;;;;;4773183;29;20059;-78
2021/01/03 00:49:42;;;;;;;50.78;21.20;;;-0.10;99.90;;;;;;4790964;29;20049;-79
2021/01/03 00:52:14;;;;;;;53.42;21.20;;;-0.10;99.90;;;;;;4773280;30;20046;-78
2021/01/03 00:54:41;;;;;;;47.40;20.25;;;-0.20;99.90;;;;;;4772163;30;20075;-78
2021/01/03 00:57:12;;;;;;;56.65;22.25;;;-0.20;99.90;;;;;;4774185;29;20039;-78
2021/01/03 00:59:38;;;;;;;46.53;20.73;;;-0.20;99.90;;;;;;4796193;29;20112;-78
2021/01/03 01:02:10;;;;;;;45.70;20.10;;;-0.20;99.90;;;;;;4771590;29;20116;-78
2021/01/03 01:04:36;;;;;;;47.42;20.17;;;-0.20;99.90;;;;;;4797264;29;20062;-78
2021/01/03 01:07:08;;;;;;;54.67;21.80;;;-0.20;99.90;;;;;;4789309;29;20085;-79
2021/01/03 01:09:39;;;;;;;55.80;22.73;;;-0.20;99.90;;;;;;4786551;29;20054;-79
2021/01/03 01:12:11;;;;;;;51.08;21.38;;;-0.20;99.90;;;;;;4801982;29;20047;-78
2021/01/03 01:14:37;;;;;;;52.40;22.75;;;-0.20;99.90;;;;;;4788157;29;20042;-78
2021/01/03 01:17:07;;;;;;;57.30;25.50;;;-0.20;99.90;;;;;;4788780;29;20054;-80
2021/01/03 01:19:34;;;;;;;49.80;21.63;;;-0.20;99.90;;;;;;4788944;29;20062;-78
2021/01/03 01:22:01;;;;;;;45.88;21.42;;;-0.20;99.90;;;;;;4789707;29;20058;-78
2021/01/03 01:24:32;;;;;;;52.85;20.45;;;-0.20;99.90;;;;;;4789708;29;20059;-78
2021/01/03 01:26:59;;;;;;;48.28;21.75;;;-0.10;99.90;;;;;;4804139;29;20123;-78
2021/01/03 01:29:30;;;;;;;55.67;21.35;;;-0.10;99.90;;;;;;4789618;29;20055;-78
2021/01/03 01:32:02;;;;;;;53.20;22.85;;;-0.10;99.90;;;;;;4804151;29;20050;-78
2021/01/03 01:34:29;;;;;;;54.15;21.95;;;-0.20;99.90;;;;;;4804186;29;20043;-78
2021/01/03 01:36:56;;;;;;;50.25;22.83;;;-0.20;99.90;;;;;;4789592;29;20055;-78
2021/01/03 01:39:23;;;;;;;54.50;22.02;;;-0.20;99.90;;;;;;4789039;29;20519;-78
2021/01/03 01:41:50;;;;;;;50.28;24.60;;;-0.20;99.90;;;;;;4789278;29;20455;-78
2021/01/03 01:44:17;;;;;;;55.13;22.25;;;-0.20;99.90;;;;;;4804167;29;20537;-78
2021/01/03 01:47:16;;;;;;;60.22;22.90;;;-0.20;99.90;;;;;;4789804;29;20059;-78
2021/01/03 01:49:44;;;;;;;54.40;22.85;;;-0.20;99.90;;;;;;4789217;29;20061;-78
2021/01/03 01:52:19;;;;;;;57.63;24.15;;;-0.20;99.90;;;;;;4789594;29;20058;-78
2021/01/03 01:54:56;;;;;;;48.95;21.92;;;-0.20;99.90;;;;;;4789256;29;20476;-78
2021/01/03 01:57:27;;;;;;;52.28;22.88;;;-0.20;99.90;;;;;;4789553;29;20055;-78
2021/01/03 02:00:04;;;;;;;54.33;23.92;;;-0.20;99.90;;;;;;4789798;29;20146;-78
2021/01/03 02:02:51;;;;;;;50.45;21.80;;;-0.20;99.90;;;;;;4803660;29;20039;-78
2021/01/03 02:05:27;;;;;;;52.55;20.77;;;-0.20;99.90;;;;;;4789679;29;20582;-78
2021/01/03 02:08:02;;;;;;;50.38;21.92;;;-0.10;99.90;;;;;;4791048;29;20058;-78
2021/01/03 02:10:44;;;;;;;55.42;22.30;;;-0.20;99.90;;;;;;4793427;29;20058;-78
2021/01/03 02:13:20;;;;;;;53.25;22.98;;;-0.10;99.90;;;;;;4792688;29;20423;-78
2021/01/03 02:15:57;;;;;;;53.55;22.55;;;-0.10;99.90;;;;;;4793265;29;20423;-78
2021/01/03 02:18:30;;;;;;;49.50;21.33;;;-0.10;99.90;;;;;;4792985;29;20137;-78
2021/01/03 02:21:28;;;;;;;55.92;22.40;;;-0.10;99.90;;;;;;4793194;29;20504;-78
2021/01/03 02:24:23;;;;;;;52.70;21.83;;;-0.10;99.90;;;;;;4792438;29;20059;-78
2021/01/03 02:27:14;;;;;;;51.13;21.00;;;-0.10;99.90;;;;;;4793454;29;20054;-78
2021/01/03 02:29:44;;;;;;;50.78;22.58;;;-0.10;99.90;;;;;;4786199;29;20304;-78
2021/01/03 02:32:12;;;;;;;51.80;21.25;;;-0.10;99.90;;;;;;4807266;29;20059;-78
2021/01/03 02:34:47;;;;;;;47.60;20.25;;;-0.10;99.90;;;;;;4792872;29;20110;-78
2021/01/03 02:37:31;;;;;;;49.92;21.70;;;-0.10;99.90;;;;;;4792893;29;20043;-78
2021/01/03 02:40:06;;;;;;;49.42;22.05;;;-0.10;99.90;;;;;;4792266;29;20468;-78
2021/01/03 02:42:36;;;;;;;53.47;22.98;;;-0.10;99.90;;;;;;4807240;29;20088;-78
2021/01/03 02:45:11;;;;;;;48.35;21.98;;;-0.10;99.90;;;;;;4807106;29;20046;-78
2021/01/03 02:47:43;;;;;;;45.00;19.80;;;-0.10;99.90;;;;;;4793072;29;20104;-78
2021/01/03 02:50:15;;;;;;;51.10;20.60;;;-0.10;99.90;;;;;;4807028;29;20096;-78
2021/01/03 02:52:47;;;;;;;48.78;21.67;;;-0.10;99.90;;;;;;4792430;29;20138;-78
2021/01/03 02:55:15;;;;;;;51.50;21.65;;;-0.10;99.90;;;;;;4791742;29;20422;-78
2021/01/03 02:57:42;;;;;;;51.72;22.42;;;-0.20;99.90;;;;;;4791896;29;20061;-78
2021/01/03 03:00:13;;;;;;;46.65;20.88;;;-0.10;99.90;;;;;;4807019;29;20058;-78
2021/01/03 03:02:40;;;;;;;50.05;21.52;;;-0.10;99.90;;;;;;4791979;29;20077;-78
2021/01/03 03:05:08;;;;;;;48.40;20.90;;;-0.10;99.90;;;;;;4792140;29;20051;-78
2021/01/03 03:07:34;;;;;;;52.38;22.05;;;-0.20;99.90;;;;;;4806910;29;20059;-78
2021/01/03 03:10:02;;;;;;;47.13;21.27;;;-0.10;99.90;;;;;;4806730;29;20537;-78
2021/01/03 03:12:29;;;;;;;47.92;20.77;;;-0.10;99.90;;;;;;4806712;29;20081;-78
2021/01/03 03:15:02;;;;;;;54.08;21.98;;;-0.10;99.90;;;;;;4792532;29;20066;-79
2021/01/03 03:17:29;;;;;;;49.00;21.80;;;-0.10;99.90;;;;;;4791528;29;20051;-78
2021/01/03 03:20:00;;;;;;;52.72;21.35;;;-0.10;99.90;;;;;;4791281;29;20112;-78
2021/01/03 03:22:27;;;;;;;48.95;20.88;;;-0.10;99.90;;;;;;4806442;29;20059;-78
2021/01/03 03:24:54;;;;;;;45.33;21.08;;;-0.10;99.90;;;;;;4791399;29;20059;-78
2021/01/03 03:27:21;;;;;;;52.92;21.23;;;-0.10;99.90;;;;;;4806687;29;20498;-78
2021/01/03 03:29:48;;;;;;;54.00;22.20;;;-0.10;99.90;;;;;;4791384;29;20119;-78
2021/01/03 03:32:14;;;;;;;45.35;20.13;;;-0.10;99.90;;;;;;4806552;29;20089;-78
2021/01/03 03:34:41;;;;;;;56.85;24.75;;;-0.10;99.90;;;;;;4791467;29;20079;-78
2021/01/03 03:37:08;;;;;;;55.13;22.27;;;-0.10;99.90;;;;;;4791342;29;20066;-78
2021/01/03 03:39:35;;;;;;;56.22;22.45;;;-0.10;99.90;;;;;;4791297;29;20046;-78
2021/01/03 03:42:02;;;;;;;55.60;21.23;;;-0.20;99.90;;;;;;4806291;29;20051;-78
2021/01/03 03:44:33;;;;;;;47.90;23.27;;;-0.20;99.90;;;;;;4792086;29;20149;-78
2021/01/03 03:47:03;;;;;;;49.10;20.30;;;-0.20;99.90;;;;;;4791211;29;20430;-78
2021/01/03 03:49:34;;;;;;;51.83;20.35;;;-0.20;99.90;;;;;;4791512;29;20098;-78
2021/01/03 03:52:06;;;;;;;51.00;22.10;;;-0.20;99.90;;;;;;4791780;29;20051;-78
2021/01/03 03:54:37;;;;;;;52.20;20.20;;;-0.20;99.90;;;;;;4791905;29;20418;-78
2021/01/03 03:57:06;;;;;;;47.95;21.48;;;-0.20;99.90;;;;;;4806087;29;20057;-78
2021/01/03 03:59:39;;;;;;;49.70;20.42;;;-0.20;99.90;;;;;;4791587;29;20047;-78
2021/01/03 04:02:06;;;;;;;44.17;19.77;;;-0.20;99.90;;;;;;4791085;29;20404;-78
2021/01/03 04:04:33;;;;;;;43.17;18.88;;;-0.30;99.90;;;;;;4805990;29;20122;-78
2021/01/03 04:06:59;;;;;;;40.20;18.85;;;-0.20;99.90;;;;;;4805983;29;20050;-78
2021/01/03 04:09:26;;;;;;;43.70;20.65;;;-0.30;99.90;;;;;;4790777;29;20055;-78
2021/01/03 04:11:58;;;;;;;43.65;19.63;;;-0.30;99.90;;;;;;4806002;29;20108;-78
2021/01/03 04:14:26;;;;;;;40.70;18.92;;;-0.20;99.90;;;;;;4790744;29;20502;-78
2021/01/03 04:17:00;;;;;;;40.63;19.10;;;-0.30;99.90;;;;;;4791621;29;20145;-78
2021/01/03 04:19:32;;;;;;;42.00;18.63;;;-0.30;99.90;;;;;;4791529;29;20059;-78
2021/01/03 04:22:05;;;;;;;33.03;17.35;;;-0.30;99.90;;;;;;4791674;29;20059;-78
2021/01/03 04:24:37;;;;;;;38.33;18.52;;;-0.30;99.90;;;;;;4805653;29;20534;-78
2021/01/03 04:27:06;;;;;;;35.75;17.15;;;-0.30;99.90;;;;;;4790758;29;20082;-78
2021/01/03 04:29:34;;;;;;;41.22;18.80;;;-0.30;99.90;;;;;;4805064;29;20051;-78
2021/01/03 04:32:07;;;;;;;36.35;18.35;;;-0.30;99.90;;;;;;4790624;29;20054;-78
2021/01/03 04:34:38;;;;;;;38.55;19.60;;;-0.30;99.90;;;;;;4805443;29;20058;-78
2021/01/03 04:37:11;;;;;;;39.78;19.13;;;-0.30;99.90;;;;;;4805572;29;20051;-78
2021/01/03 04:39:46;;;;;;;50.25;22.35;;;-0.30;99.90;;;;;;4791760;29;20114;-78
2021/01/03 04:42:18;;;;;;;44.25;20.92;;;-0.20;99.90;;;;;;4790418;29;20477;-78
2021/01/03 04:44:57;;;;;;;53.13;23.08;;;-0.20;99.90;;;;;;4791043;29;20077;-78
2021/01/03 04:47:59;;;;;;;38.75;18.25;;;-0.20;99.90;;;;;;4805272;29;20055;-78
2021/01/03 04:50:58;;;;;;;41.67;18.38;;;-0.20;99.90;;;;;;4781709;29;20477;-78
2021/01/03 04:54:02;;;;;;;41.85;18.38;;;-0.20;99.90;;;;;;4790347;29;20059;-78
2021/01/03 04:56:34;;;;;;;42.80;18.38;;;-0.30;99.90;;;;;;4790359;29;20066;-78
2021/01/03 04:59:18;;;;;;;39.92;17.88;;;-0.30;99.90;;;;;;4790896;29;20153;-78
2021/01/03 05:02:05;;;;;;;;;;;-0.30;99.90;;;;;;4791375;29;20047;-78
2021/01/03 05:04:47;;;;;;;37.05;17.85;;;-0.30;99.90;;;;;;4804951;29;19978;-78
2021/01/03 05:07:24;;;;;;;42.55;17.90;;;-0.30;99.90;;;;;;4789870;29;20055;-78
2021/01/03 05:09:54;;;;;;;43.20;18.23;;;-0.30;99.90;;;;;;4804934;29;20091;-79
2021/01/03 05:12:27;;;;;;;45.15;19.23;;;-0.30;99.90;;;;;;4805312;29;20055;-78
2021/01/03 05:15:04;;;;;;;43.50;18.60;;;-0.30;99.90;;;;;;4790044;29;20047;-78
2021/01/03 05:17:30;;;;;;;43.58;19.58;;;-0.30;99.90;;;;;;4789890;29;20081;-78
2021/01/03 05:20:04;;;;;;;39.25;18.73;;;-0.30;99.90;;;;;;4790670;29;20061;-78
2021/01/03 05:22:33;;;;;;;44.35;19.38;;;-0.40;99.90;;;;;;4789849;29;20396;-79
2021/01/03 05:25:03;;;;;;;42.35;19.13;;;-0.40;99.90;;;;;;4804594;29;20092;-78
2021/01/03 05:27:35;;;;;;;44.40;18.55;;;-0.40;99.90;;;;;;4790586;29;20149;-78
2021/01/03 05:30:17;;;;;;;42.28;20.02;;;-0.40;99.90;;;;;;4790457;29;20146;-79
2021/01/03 05:32:49;;;;;;;41.20;18.23;;;-0.40;99.90;;;;;;4790431;29;20141;-78
2021/01/03 05:35:26;;;;;;;46.45;17.92;;;-0.40;99.90;;;;;;4804554;29;20058;-78
2021/01/03 05:38:00;;;;;;;43.90;17.33;;;-0.40;99.90;;;;;;4790104;29;20047;-78
2021/01/03 05:40:34;;;;;;;45.20;19.05;;;-0.40;99.90;;;;;;4789911;29;20151;-79
2021/01/03 05:43:14;;;;;;;42.78;20.25;;;-0.40;99.90;;;;;;4789022;29;20059;-78
2021/01/03 05:46:04;;;;;;;;;;;-0.40;99.90;;;;;;4805895;29;20096;-78
2021/01/03 05:49:01;;;;;;;47.65;17.58;;;-0.40;99.90;;;;;;4804478;29;19982;-78
2021/01/03 05:51:46;;;;;;;39.50;17.13;;;-0.30;99.90;;;;;;4804433;29;20055;-78
2021/01/03 05:54:34;;;;;;;44.25;18.55;;;-0.30;99.90;;;;;;4789546;29;20047;-78
2021/01/03 05:57:17;;;;;;;41.97;18.35;;;-0.30;99.90;;;;;;4789281;29;20050;-78
2021/01/03 05:59:46;;;;;;;36.58;16.83;;;-0.30;99.90;;;;;;4804487;29;20055;-78
2021/01/03 06:02:20;;;;;;;37.40;15.95;;;-0.40;99.90;;;;;;4789339;29;20169;-78
2021/01/03 06:04:47;;;;;;;;;;;-0.30;99.90;;;;;;4804612;29;20057;-78
2021/01/03 06:07:24;;;;;;;33.15;15.05;;;-0.40;99.90;;;;;;4790001;29;19925;-78
2021/01/03 06:09:51;;;;;;;33.67;15.18;;;-0.30;99.90;;;;;;4789296;29;20050;-78
2021/01/03 06:12:30;;;;;;;34.38;16.58;;;-0.40;99.90;;;;;;4804281;29;20419;-78
2021/01/03 06:15:06;;;;;;;31.38;15.57;;;-0.30;99.90;;;;;;4790051;29;20132;-78
2021/01/03 06:17:43;;;;;;;32.55;15.18;;;-0.30;99.90;;;;;;4804368;29;20142;-78
2021/01/03 06:20:13;;;;;;;36.88;17.83;;;-0.30;99.90;;;;;;4804178;29;20050;-78
2021/01/03 06:22:51;;;;;;;30.58;15.50;;;-0.30;99.90;;;;;;4789872;29;20078;-78
2021/01/03 06:25:49;;;;;;;31.02;14.68;;;-0.20;99.90;;;;;;4790065;29;20055;-78
2021/01/03 06:28:24;;;;;;;30.33;15.15;;;-0.20;99.90;;;;;;4789807;29;20047;-78
2021/01/03 06:30:55;;;;;;;34.00;17.02;;;-0.20;99.90;;;;;;4789109;29;20051;-78
2021/01/03 06:34:12;;;;;;;30.42;14.40;;;-0.20;99.90;;;;;;4805417;29;20129;-78
2021/01/03 06:37:15;;;;;;;31.23;14.27;;;-0.20;99.90;;;;;;4802174;29;20420;-78
2021/01/03 06:39:54;;;;;;;33.22;16.00;;;-0.30;99.90;;;;;;4787294;29;20586;-78
2021/01/03 06:42:30;;;;;;;31.80;15.13;;;-0.30;99.90;;;;;;4789064;29;20472;-79
2021/01/03 06:45:25;;;;;;;32.55;14.90;;;-0.30;99.90;;;;;;4789852;29;20070;-78
2021/01/03 06:48:31;;;;;;;33.78;16.15;;;-0.30;99.90;;;;;;4789262;29;20055;-79
2021/01/03 06:51:21;;;;;;;33.78;14.93;;;-0.30;99.90;;;;;;4789462;29;20047;-78
2021/01/03 06:54:13;;;;;;;31.80;15.98;;;-0.30;99.90;;;;;;4791580;29;20142;-78
2021/01/03 06:56:53;;;;;;;31.52;14.63;;;-0.30;99.90;;;;;;4792646;29;20063;-79
2021/01/03 07:00:03;;;;;;;29.60;14.48;;;-0.30;99.90;;;;;;4792223;29;20047;-79
2021/01/03 07:02:40;;;;;;;30.60;14.82;;;-0.20;99.90;;;;;;4792089;29;20059;-78
2021/01/03 07:05:08;;;;;;;32.47;15.63;;;-0.20;99.90;;;;;;4792019;29;20097;-77
2021/01/03 07:07:37;;;;;;;38.45;17.02;;;-0.30;99.90;;;;;;4809447;29;20047;-79
2021/01/03 07:10:17;;;;;;;40.13;17.17;;;-0.30;99.90;;;;;;4790702;29;20150;-77
2021/01/03 07:12:49;;;;;;;34.50;15.80;;;-0.30;99.90;;;;;;4791182;29;20392;-77
2021/01/03 07:15:26;;;;;;;42.45;18.98;;;-0.20;99.90;;;;;;4790539;29;20050;-77
2021/01/03 07:17:58;;;;;;;39.50;20.30;;;-0.20;99.90;;;;;;4785805;29;20134;-77
2021/01/03 07:20:47;;;;;;;39.47;17.42;;;-0.20;99.90;;;;;;4790426;29;20126;-79
2021/01/03 07:23:46;;;;;;;33.40;15.10;;;-0.10;99.90;;;;;;4786848;30;20051;-78
2021/01/03 07:26:32;;;;;;;32.00;15.77;;;-0.10;99.90;;;;;;4782309;29;20090;-77
2021/01/03 07:29:13;;;;;;;32.67;16.75;;;-0.10;99.90;;;;;;4790537;29;20074;-78
2021/01/03 07:31:39;;;;;;;35.15;15.82;;;-0.10;99.90;;;;;;4804860;29;20141;-77
2021/01/03 07:34:36;;;;;;;37.03;15.80;;;-0.10;99.90;;;;;;4790474;29;20047;-77
2021/01/03 07:37:40;;;;;;;42.08;18.40;;;-0.10;99.90;;;;;;4790544;29;20092;-78
2021/01/03 07:40:17;;;;;;;39.78;19.08;;;-0.10;99.90;;;;;;4780562;29;20069;-78
2021/01/03 07:42:52;;;;;;;35.45;18.73;;;-0.10;99.90;;;;;;4790229;29;20138;-78
2021/01/03 07:45:32;;;;;;;43.63;19.95;;;-0.10;99.90;;;;;;4790216;29;20047;-78
2021/01/03 07:47:58;;;;;;;36.42;18.13;;;-0.10;99.90;;;;;;4804466;29;20080;-77
2021/01/03 07:50:34;;;;;;;38.05;17.25;;;-0.10;99.90;;;;;;4790090;29;20057;-78
2021/01/03 07:53:36;;;;;;;38.10;18.23;;;-0.20;99.90;;;;;;4790087;29;20050;-77
2021/01/03 07:56:18;;;;;;;37.53;17.35;;;-0.20;99.90;;;;;;4789879;29;20058;-79
2021/01/03 07:58:54;;;;;;;40.65;19.02;;;-0.20;99.90;;;;;;4804202;29;20134;-77
2021/01/03 08:01:31;;;;;;;44.72;20.92;;;-0.20;99.90;;;;;;4789668;29;20058;-79
2021/01/03 08:04:25;;;;;;;68.82;27.48;;;-0.10;99.90;;;;;;4788956;29;20051;-77
2021/01/03 08:07:09;;;;;;;60.47;25.42;;;-0.10;99.90;;;;;;4789650;29;20252;-78
2021/01/03 08:09:41;;;;;;;43.05;20.63;;;0.00;99.90;;;;;;4803609;29;20047;-77
2021/01/03 08:12:19;;;;;;;40.53;19.85;;;-0.10;99.90;;;;;;4804134;29;20039;-78
2021/01/03 08:14:46;;;;;;;41.42;18.70;;;-0.10;99.90;;;;;;4788571;29;20084;-77
2021/01/03 08:17:28;;;;;;;37.15;19.33;;;0.00;99.90;;;;;;4789153;29;20046;-78
2021/01/03 08:20:03;;;;;;;45.55;18.48;;;0.00;99.90;;;;;;4785133;30;20580;-78
2021/01/03 08:22:34;;;;;;;41.95;18.15;;;0.00;99.90;;;;;;4768474;30;20057;-77
2021/01/03 08:25:06;;;;;;;34.85;17.60;;;0.00;99.90;;;;;;4771455;30;20079;-78
2021/01/03 08:27:43;;;;;;;44.80;19.95;;;0.00;99.90;;;;;;4771944;30;20088;-78
2021/01/03 08:30:20;;;;;;;44.13;20.38;;;0.10;99.90;;;;;;4785734;30;20057;-76
2021/01/03 08:32:46;;;;;;;42.33;18.00;;;0.00;99.90;;;;;;4785443;29;20063;-77
2021/01/03 08:35:28;;;;;;;41.25;18.38;;;0.10;99.90;;;;;;4771772;30;20047;-77
2021/01/03 08:38:00;;;;;;;37.35;17.15;;;0.10;99.90;;;;;;4771929;30;20151;-77
2021/01/03 08:40:38;;;;;;;40.33;18.60;;;0.10;99.90;;;;;;4772567;30;20051;-77
2021/01/03 08:43:15;;;;;;;41.13;18.83;;;0.10;99.90;;;;;;4770771;30;20047;-77
2021/01/03 08:45:49;;;;;;;39.90;16.92;;;0.10;99.90;;;;;;4770535;29;20077;-76
2021/01/03 08:48:22;;;;;;;38.47;18.85;;;0.10;99.90;;;;;;4784466;29;20154;-77
2021/01/03 08:51:00;;;;;;;49.97;22.42;;;0.10;99.90;;;;;;4784497;30;20118;-76
2021/01/03 08:53:27;;;;;;;44.13;22.83;;;0.00;99.90;;;;;;4769668;29;20051;-77
2021/01/03 08:56:18;;;;;;;38.45;19.45;;;0.00;99.90;;;;;;4770226;30;20054;-77
2021/01/03 08:58:45;;;;;;;41.80;21.48;;;0.00;99.90;;;;;;4784358;29;20579;-77
2021/01/03 09:01:19;;;;;;;37.80;18.40;;;0.10;99.90;;;;;;4770595;30;20146;-77
2021/01/03 09:03:53;;;;;;;37.72;19.35;;;0.10;99.90;;;;;;4770543;30;20056;-77
2021/01/03 09:06:25;;;;;;;51.55;24.92;;;0.10;99.90;;;;;;4770443;30;20047;-76
2021/01/03 09:08:57;;;;;;;100.30;46.28;;;0.10;99.90;;;;;;4769671;30;20530;-77
2021/01/03 09:11:32;;;;;;;73.93;34.38;;;0.10;99.90;;;;;;4770412;30;20054;-76
2021/01/03 09:14:20;;;;;;;45.38;20.20;;;0.10;99.90;;;;;;4769793;29;20071;-77
2021/01/03 09:16:53;;;;;;;46.40;21.83;;;0.00;99.90;;;;;;4784576;29;20458;-77
2021/01/03 09:19:34;;;;;;;86.90;41.88;;;0.00;99.90;;;;;;4783817;30;20058;-77
2021/01/03 09:22:02;;;;;;;53.65;26.63;;;0.00;99.90;;;;;;4767989;29;20466;-77
2021/01/03 09:24:32;;;;;;;51.72;23.83;;;-0.10;99.90;;;;;;4787932;29;20076;-77
2021/01/03 09:27:08;;;;;;;113.90;44.05;;;0.00;99.90;;;;;;4792793;29;20130;-77
2021/01/03 09:29:41;;;;;;;51.95;23.95;;;0.30;99.90;;;;;;4768760;30;20048;-77
2021/01/03 09:32:30;;;;;;;168.23;61.75;;;0.30;99.90;;;;;;4785004;29;20378;-77
2021/01/03 09:35:16;;;;;;;59.20;27.63;;;0.30;99.90;;;;;;4778574;29;20104;-77
2021/01/03 09:38:19;;;;;;;157.05;59.60;;;0.30;99.90;;;;;;4755670;30;20055;-77
2021/01/03 09:41:27;;;;;;;104.25;43.72;;;0.30;99.90;;;;;;4781571;29;20056;-77
2021/01/03 09:44:23;;;;;;;178.65;73.57;;;0.30;99.90;;;;;;4786374;29;20043;-76
2021/01/03 09:46:53;;;;;;;193.95;83.38;;;0.30;99.90;;;;;;4782127;29;20044;-76
2021/01/03 09:49:22;;;;;;;55.80;27.60;;;0.30;99.90;;;;;;4778118;29;20154;-77
2021/01/03 09:52:08;;;;;;;54.72;27.02;;;0.30;99.90;;;;;;4768219;30;20732;-77
2021/01/03 09:54:41;;;;;;;52.10;25.58;;;0.20;99.90;;;;;;4767953;29;20059;-78
2021/01/03 09:57:11;;;;;;;;;;;0.20;99.90;;;;;;4768012;30;20051;-77
2021/01/03 09:59:54;;;;;;;38.30;18.60;;;0.20;99.90;;;;;;4783101;29;20394;-76
2021/01/03 10:02:27;;;;;;;33.22;16.05;;;0.20;99.90;;;;;;4783949;29;20054;-76
2021/01/03 10:04:58;;;;;;;36.13;17.00;;;0.10;99.90;;;;;;4770338;29;20059;-77
2021/01/03 10:07:30;;;;;;;39.92;17.88;;;0.10;99.90;;;;;;4773109;29;20120;-77
2021/01/03 10:10:06;;;;;;;45.95;20.95;;;0.10;99.90;;;;;;4800259;29;20050;-77
2021/01/03 10:12:39;;;;;;;40.97;20.05;;;0.00;99.90;;;;;;4791808;29;20039;-76
2021/01/03 10:15:20;;;;;;;44.35;21.23;;;0.10;99.90;;;;;;4794639;29;20100;-76
2021/01/03 10:18:03;;;;;;;40.22;20.27;;;0.10;99.90;;;;;;4799482;29;20084;-76
2021/01/03 10:20:39;;;;;;;42.97;19.60;;;0.20;99.90;;;;;;4768102;30;20116;-77
2021/01/03 10:23:33;;;;;;;43.05;19.60;;;0.20;99.90;;;;;;4779359;29;20047;-76
2021/01/03 10:26:02;;;;;;;44.53;19.67;;;0.20;99.90;;;;;;4795565;29;20112;-77
2021/01/03 10:28:33;;;;;;;42.58;21.17;;;0.20;99.90;;;;;;4779985;29;20492;-76
2021/01/03 10:31:00;;;;;;;50.90;23.23;;;0.20;99.90;;;;;;4773536;29;20051;-77
2021/01/03 10:33:31;;;;;;;43.47;20.83;;;0.20;99.90;;;;;;4788138;30;20043;-76
2021/01/03 10:36:03;;;;;;;47.10;22.05;;;0.20;99.90;;;;;;4798246;29;20051;-76
2021/01/03 10:38:34;;;;;;;37.63;17.92;;;0.20;99.90;;;;;;4789985;29;20120;-76
2021/01/03 10:41:06;;;;;;;44.38;19.77;;;0.20;99.90;;;;;;4802274;29;20047;-76
2021/01/03 10:43:32;;;;;;;43.42;19.23;;;0.20;99.90;;;;;;4801191;29;20062;-76
2021/01/03 10:45:59;;;;;;;44.47;20.58;;;0.30;99.90;;;;;;4774501;29;20579;-77
2021/01/03 10:48:30;;;;;;;43.55;19.40;;;0.30;99.90;;;;;;4772983;29;20051;-76
2021/01/03 10:51:01;;;;;;;43.28;19.15;;;0.30;99.90;;;;;;4777843;29;20101;-76
2021/01/03 10:53:28;;;;;;;41.90;21.98;;;0.30;99.90;;;;;;4787904;29;20060;-76
2021/01/03 10:56:00;;;;;;;33.83;17.17;;;0.30;99.90;;;;;;4784962;29;20058;-77
2021/01/03 10:58:27;;;;;;;50.28;21.58;;;0.30;99.90;;;;;;4806203;29;20061;-76
2021/01/03 11:00:58;;;;;;;43.15;19.02;;;0.30;99.90;;;;;;4778342;29;20051;-76
2021/01/03 11:03:29;;;;;;;47.25;21.15;;;0.40;99.90;;;;;;4787748;29;20527;-76
2021/01/03 11:06:01;;;;;;;39.00;19.13;;;0.30;99.90;;;;;;4785681;29;20094;-76
2021/01/03 11:08:32;;;;;;;42.40;19.02;;;0.30;99.90;;;;;;4779726;29;20067;-77
2021/01/03 11:11:04;;;;;;;40.85;18.50;;;0.30;99.90;;;;;;4787163;29;20043;-76
2021/01/03 11:13:41;;;;;;;45.47;20.25;;;0.30;99.90;;;;;;4773959;29;20457;-77
2021/01/03 11:16:13;;;;;;;42.47;18.13;;;0.30;99.90;;;;;;4786931;30;20467;-77
2021/01/03 11:18:44;;;;;;;39.15;18.98;;;0.30;99.90;;;;;;4787218;29;20070;-76
2021/01/03 11:21:14;;;;;;;37.10;17.98;;;0.20;99.90;;;;;;4771251;29;20059;-76
2021/01/03 11:23:46;;;;;;;42.22;17.90;;;0.20;99.90;;;;;;4785908;30;20062;-76
2021/01/03 11:26:32;;;;;;;37.95;17.80;;;0.20;99.90;;;;;;4771786;30;20083;-76
2021/01/03 11:28:59;;;;;;;38.20;19.38;;;0.20;99.90;;;;;;4785455;29;20067;-76
2021/01/03 11:31:37;;;;;;;37.88;17.92;;;0.20;99.90;;;;;;4790453;29;20197;-76
2021/01/03 11:34:11;;;;;;;38.83;17.63;;;0.20;99.90;;;;;;4774278;29;20049;-76
2021/01/03 11:36:37;;;;;;;40.13;18.17;;;0.30;99.90;;;;;;4787363;29;20592;-76
2021/01/03 11:39:09;;;;;;;42.05;20.15;;;0.30;99.90;;;;;;4784236;30;20072;-76
2021/01/03 11:41:45;;;;;;;36.95;20.30;;;0.30;99.90;;;;;;4771232;30;20051;-76
2021/01/03 11:44:18;;;;;;;35.55;17.23;;;0.20;99.90;;;;;;4771216;30;20134;-76
2021/01/03 11:46:56;;;;;;;31.10;15.43;;;0.30;99.90;;;;;;4767459;30;20130;-76
2021/01/03 11:49:27;;;;;;;32.83;14.63;;;0.30;99.90;;;;;;4753160;30;20052;-76
2021/01/03 11:52:03;;;;;;;31.65;14.95;;;0.40;99.90;;;;;;4782339;29;20103;-76
2021/01/03 11:54:35;;;;;;;36.50;14.73;;;0.50;99.90;;;;;;4767401;30;20062;-76
2021/01/03 11:57:07;;;;;;;32.17;15.63;;;0.50;99.90;;;;;;4782102;29;20525;-76
2021/01/03 11:59:38;;;;;;;31.13;15.85;;;0.50;99.90;;;;;;4752904;30;20146;-76
2021/01/03 12:02:11;;;;;;;33.35;15.82;;;0.60;99.90;;;;;;4782190;29;20164;-76
2021/01/03 12:04:42;;;;;;;27.38;14.30;;;0.60;99.90;;;;;;4753110;30;20577;-76
2021/01/03 12:07:17;;;;;;;29.65;13.57;;;0.60;99.90;;;;;;4781996;29;20068;-76
2021/01/03 12:09:48;;;;;;;29.10;16.10;;;0.60;99.90;;;;;;4780843;29;20603;-76
2021/01/03 12:12:21;;;;;;;29.35;15.20;;;0.60;99.90;;;;;;4781356;30;20051;-75
2021/01/03 12:14:52;;;;;;;31.23;15.15;;;0.60;99.90;;;;;;4781874;29;20040;-76
2021/01/03 12:17:24;;;;;;;30.73;14.93;;;0.60;99.90;;;;;;4781107;29;20151;-75
2021/01/03 12:19:55;;;;;;;30.48;14.93;;;0.60;99.90;;;;;;4752524;30;20072;-76
2021/01/03 12:22:26;;;;;;;31.38;16.30;;;0.60;99.90;;;;;;4785163;29;20079;-76
2021/01/03 12:24:57;;;;;;;29.45;16.15;;;0.50;99.90;;;;;;4784723;30;20149;-76
2021/01/03 12:27:29;;;;;;;29.67;14.52;;;0.50;99.90;;;;;;4770448;30;20584;-76
2021/01/03 12:30:00;;;;;;;26.58;13.73;;;0.50;99.90;;;;;;4770113;30;20142;-76
2021/01/03 12:32:31;;;;;;;26.23;14.70;;;0.50;99.90;;;;;;4770357;30;20146;-76
2021/01/03 12:35:03;;;;;;;28.75;14.90;;;0.50;99.90;;;;;;4784680;30;20047;-76
2021/01/03 12:37:29;;;;;;;28.30;14.70;;;0.50;99.90;;;;;;4784455;29;20487;-76
2021/01/03 12:39:55;;;;;;;28.17;13.27;;;0.50;99.90;;;;;;4783950;29;20485;-76
2021/01/03 12:42:26;;;;;;;31.73;15.48;;;0.50;99.90;;;;;;4784466;30;20465;-76
2021/01/03 12:44:58;;;;;;;24.98;13.75;;;0.60;99.90;;;;;;4784426;30;20047;-75
2021/01/03 12:47:32;;;;;;;25.17;13.38;;;0.60;99.90;;;;;;4769967;30;20141;-76
2021/01/03 12:50:23;;;;;;;32.28;16.45;;;0.60;99.90;;;;;;4791395;29;20150;-81
2021/01/03 12:56:45;;;;;;;25.95;12.98;;;0.60;99.90;;;;;;4800104;29;20188;-77
2021/01/03 12:59:17;;;;;;;24.65;12.70;;;0.70;99.90;;;;;;4783900;30;20082;-77
2021/01/03 13:01:49;;;;;;;25.40;13.88;;;0.70;99.90;;;;;;4769982;30;20062;-76
2021/01/03 13:04:20;;;;;;;28.15;14.65;;;0.80;99.90;;;;;;4769665;30;20146;-76
2021/01/03 13:06:52;;;;;;;26.95;13.77;;;0.80;99.90;;;;;;4785164;29;20063;-76
2021/01/03 13:09:20;;;;;;;22.15;11.75;;;0.80;99.90;;;;;;4783402;29;20074;-76
2021/01/03 13:11:49;;;;;;;24.27;13.15;;;0.80;99.90;;;;;;4783859;29;20515;-76
2021/01/03 13:14:21;;;;;;;23.10;12.73;;;0.80;99.90;;;;;;4766034;30;20039;-77